Minto, Alaska
Current Conditions -  °F | °C
As of 7:22 PM on Friday 24 Oct 2014 (Local Time) from PANN Reporting Station
Light Snow Light Snow  
Wind Chill: 24°   Ceiling: 4900
Heat Index: 24°   Visibility: 3mi
Dew Point: 21°   Wind: 0mph
Humidity: 88%   Direction: NA
Pressure: 29.93"   Gusts: NA
Location:  65.03°N, 149.53°W
Report Text: PANN 250322Z AUTO 00000KT 3SM -SN BR OVC049 M04/M06 A2993 RMK AO2 P0001 T10441061 TSNO
Loading
Personal Weather Stations






























Interactive Weather Map
Tropical Storm Tracking
New forecast layout! Learn more

10-Day Weather Forecast

Advertisements
Track Severe Weather on mobile